Time;durP1;ratioP1;P1;durP2;ratioP2;P2;SDS_P1;SDS_P2;PMS_P1;PMS_P2;Temp;Humidity;BMP_temperature;BMP_pressure;BME280_temperature;BME280_humidity;BME280_pressure;Samples;Min_cycle;Max_cycle;Signal;HPM_P1;HPM_P2
2022/01/11 00:01:46;;;;;;;14.52;7.38;;;;;;;-3.66;100.00;100561.13;5172539;27;20057;-53
2022/01/11 00:04:16;;;;;;;17.48;8.32;;;;;;;-3.61;100.00;100555.84;5172474;27;20132;-54
2022/01/11 00:06:45;;;;;;;16.80;8.30;;;;;;;-3.57;100.00;100563.16;5172408;27;20046;-51
2022/01/11 00:09:23;;;;;;;18.50;8.02;;;;;;;-3.48;100.00;100560.94;5171940;27;20042;-53
2022/01/11 00:11:50;;;;;;;16.42;7.00;;;;;;;-3.42;100.00;100569.91;5171967;27;20049;-50
2022/01/11 00:14:16;;;;;;;14.63;7.85;;;;;;;-3.42;100.00;100559.19;5172022;27;20042;-50
2022/01/11 00:16:42;;;;;;;14.82;7.53;;;;;;;-3.31;100.00;100561.81;5171991;27;20042;-53
2022/01/11 00:19:09;;;;;;;18.17;8.98;;;;;;;-3.18;100.00;100560.72;5171906;27;20432;-52
2022/01/11 00:21:44;;;;;;;13.55;7.63;;;;;;;-3.17;100.00;100561.53;5171387;27;20089;-49
2022/01/11 00:24:29;;;;;;;17.20;8.20;;;;;;;-3.17;100.00;100585.66;5172491;27;20046;-50
2022/01/11 00:26:57;;;;;;;19.20;8.00;;;;;;;-3.17;100.00;100581.09;5171814;27;20101;-51
2022/01/11 00:29:24;;;;;;;15.55;7.97;;;;;;;-3.04;100.00;100579.19;5171857;27;20053;-53
2022/01/11 00:31:51;;;;;;;15.00;7.72;;;;;;;-2.95;100.00;100589.31;5171835;27;20102;-49
2022/01/11 00:34:20;;;;;;;19.80;8.38;;;;;;;-2.94;100.00;100596.28;5171986;27;20049;-51
2022/01/11 00:36:46;;;;;;;17.02;8.10;;;;;;;-2.89;100.00;100600.97;5171887;27;20095;-53
2022/01/11 00:39:14;;;;;;;20.08;9.10;;;;;;;-2.88;100.00;100602.56;5171928;27;20050;-51
2022/01/11 00:41:42;;;;;;;18.98;8.93;;;;;;;-2.92;100.00;100615.66;5171619;27;20098;-53
2022/01/11 00:44:09;;;;;;;18.95;8.02;;;;;;;-2.93;100.00;100630.16;5171958;27;20057;-51
2022/01/11 00:46:35;;;;;;;18.23;8.50;;;;;;;-2.95;100.00;100629.56;5171902;27;20054;-50
2022/01/11 00:49:02;;;;;;;18.60;8.57;;;;;;;-2.88;100.00;100632.09;5171819;27;20165;-50
2022/01/11 00:51:29;;;;;;;15.52;7.93;;;;;;;-2.83;100.00;100637.56;5171783;27;20129;-54
2022/01/11 00:53:57;;;;;;;16.15;8.02;;;;;;;-2.79;100.00;100638.72;5171863;27;20107;-52
2022/01/11 00:56:23;;;;;;;18.52;8.90;;;;;;;-2.76;100.00;100645.47;5172078;27;20050;-53
2022/01/11 00:58:50;;;;;;;18.63;8.45;;;;;;;-2.70;100.00;100645.34;5171799;27;20057;-51
2022/01/11 01:01:16;;;;;;;13.88;7.95;;;;;;;-2.69;100.00;100651.50;5175115;27;20050;-52
2022/01/11 01:03:42;;;;;;;15.38;8.48;;;;;;;-2.70;100.00;100658.75;5174878;27;20046;-53
2022/01/11 01:06:08;;;;;;;15.80;9.23;;;;;;;-2.64;100.00;100667.69;5174930;27;20058;-52
2022/01/11 01:08:35;;;;;;;17.77;8.80;;;;;;;-2.63;100.00;100672.03;5174802;27;20077;-52
2022/01/11 01:11:02;;;;;;;19.52;8.93;;;;;;;-2.67;100.00;100678.91;5174659;27;20050;-51
2022/01/11 01:13:29;;;;;;;16.42;7.97;;;;;;;-2.75;100.00;100682.00;5174765;27;20072;-53
2022/01/11 01:15:56;;;;;;;14.20;8.80;;;;;;;-2.64;100.00;100681.94;5174701;27;20101;-55
2022/01/11 01:18:25;;;;;;;17.02;9.02;;;;;;;-2.62;100.00;100689.75;5174664;27;20046;-50
2022/01/11 01:20:53;;;;;;;15.05;8.35;;;;;;;-2.59;100.00;100686.59;5174613;27;20536;-51
2022/01/11 01:23:20;;;;;;;17.25;8.65;;;;;;;-2.58;100.00;100690.09;5174525;27;20628;-53
2022/01/11 01:25:50;;;;;;;15.23;8.20;;;;;;;-2.69;100.00;100702.53;5174894;27;20493;-53
2022/01/11 01:28:18;;;;;;;15.90;8.52;;;;;;;-2.70;100.00;100699.03;5174538;27;20050;-53
2022/01/11 01:30:45;;;;;;;18.48;9.07;;;;;;;-2.60;100.00;100698.38;5174328;27;20085;-51
2022/01/11 01:33:11;;;;;;;17.85;9.32;;;;;;;-2.59;100.00;100693.84;5174542;27;20050;-54
2022/01/11 01:35:39;;;;;;;15.82;8.43;;;;;;;-2.49;100.00;100689.47;5174065;27;20508;-51
2022/01/11 01:38:07;;;;;;;14.68;8.25;;;;;;;-2.53;100.00;100687.47;5174271;27;20079;-52
2022/01/11 01:40:38;;;;;;;21.80;9.57;;;;;;;-2.52;100.00;100691.81;5174297;27;20449;-53
2022/01/11 01:43:08;;;;;;;16.38;7.50;;;;;;;-2.65;100.00;100690.25;5174180;27;20459;-54
2022/01/11 01:45:35;;;;;;;17.98;8.63;;;;;;;-2.67;100.00;100695.84;5174107;27;20053;-51
2022/01/11 01:48:02;;;;;;;18.40;8.75;;;;;;;-2.49;100.00;100689.47;5174280;27;20046;-54
2022/01/11 01:50:29;;;;;;;13.45;7.90;;;;;;;-2.54;100.00;100697.41;5173997;27;20085;-54
2022/01/11 01:52:58;;;;;;;15.18;7.50;;;;;;;-2.58;100.00;100684.72;5174190;27;20065;-55
2022/01/11 01:55:25;;;;;;;14.98;7.75;;;;;;;-2.55;100.00;100685.06;5174395;27;20054;-51
2022/01/11 01:57:52;;;;;;;15.90;8.43;;;;;;;-2.55;100.00;100673.50;5174144;27;20092;-51
2022/01/11 02:00:20;;;;;;;11.65;7.10;;;;;;;-2.48;100.00;100679.53;5174329;27;20054;-55
2022/01/11 02:02:46;;;;;;;14.30;7.18;;;;;;;-2.51;100.00;100670.09;5174118;27;20129;-52
2022/01/11 02:05:13;;;;;;;12.77;7.10;;;;;;;-2.49;100.00;100659.94;5174078;27;20466;-54
2022/01/11 02:07:39;;;;;;;12.95;7.07;;;;;;;-2.52;100.00;100652.34;5173932;27;20046;-50
2022/01/11 02:10:07;;;;;;;13.52;6.65;;;;;;;-2.49;100.00;100645.69;5173698;27;20069;-50
2022/01/11 02:12:34;;;;;;;15.75;6.95;;;;;;;-2.44;100.00;100635.84;5172662;27;20046;-50
2022/01/11 02:15:01;;;;;;;12.75;6.53;;;;;;;-2.43;100.00;100616.00;5173795;27;20042;-50
2022/01/11 02:17:28;;;;;;;11.82;6.82;;;;;;;-2.41;100.00;100583.50;5173767;27;20424;-51
2022/01/11 02:19:55;;;;;;;11.02;6.28;;;;;;;-2.52;100.00;100555.69;5173814;27;20056;-53
2022/01/11 02:22:22;;;;;;;12.32;7.15;;;;;;;-2.55;100.00;100558.03;5173442;27;20050;-52
2022/01/11 02:24:48;;;;;;;14.32;6.78;;;;;;;-2.54;100.00;100543.56;5173844;27;20050;-53
2022/01/11 02:27:15;;;;;;;12.00;6.20;;;;;;;-2.48;100.00;100535.34;5173894;27;20424;-54
2022/01/11 02:29:43;;;;;;;10.02;6.10;;;;;;;-2.51;100.00;100511.66;5173479;27;20132;-52
2022/01/11 02:32:10;;;;;;;11.38;6.47;;;;;;;-2.61;100.00;100487.34;5173687;27;20050;-52
2022/01/11 02:34:37;;;;;;;13.70;7.05;;;;;;;-2.49;100.00;100490.75;5173490;27;20077;-54
2022/01/11 02:37:03;;;;;;;16.00;6.32;;;;;;;-2.44;100.00;100473.88;5173322;27;20050;-55
2022/01/11 02:39:30;;;;;;;12.68;6.43;;;;;;;-2.44;100.00;100450.53;5173362;27;20052;-53
2022/01/11 02:42:00;;;;;;;13.45;6.35;;;;;;;-2.56;100.00;100404.19;5173543;27;20533;-49
2022/01/11 02:44:27;;;;;;;13.48;5.63;;;;;;;-2.54;100.00;100390.50;5173449;27;20474;-53
2022/01/11 02:46:53;;;;;;;14.32;5.63;;;;;;;-2.58;100.00;100355.28;5173341;27;20042;-53
2022/01/11 02:49:19;;;;;;;11.35;5.82;;;;;;;-2.49;100.00;100342.25;5173310;27;20054;-52
2022/01/11 02:51:46;;;;;;;15.20;6.15;;;;;;;-2.50;100.00;100305.69;5173289;27;20050;-56
2022/01/11 02:54:12;;;;;;;12.90;6.13;;;;;;;-2.42;100.00;100281.09;5173381;27;20505;-50
2022/01/11 02:56:39;;;;;;;11.27;5.25;;;;;;;-2.52;100.00;100233.47;5173108;27;20050;-51
2022/01/11 02:59:05;;;;;;;10.30;4.30;;;;;;;-2.55;100.00;100153.44;5173021;27;20046;-50
2022/01/11 03:01:32;;;;;;;11.13;5.05;;;;;;;-2.52;100.00;100074.25;5173242;27;20077;-51
2022/01/11 03:03:58;;;;;;;9.20;4.28;;;;;;;-2.60;100.00;99978.88;5173007;27;20098;-55
2022/01/11 03:06:24;;;;;;;12.00;5.18;;;;;;;-2.74;100.00;99889.13;5172907;27;20054;-51
2022/01/11 03:08:51;;;;;;;15.45;5.97;;;;;;;-2.72;100.00;99828.78;5172940;27;20504;-53
2022/01/11 03:11:21;;;;;;;11.57;5.35;;;;;;;-2.56;100.00;99816.25;5172885;27;20200;-51
2022/01/11 03:13:48;;;;;;;16.95;5.80;;;;;;;-2.71;100.00;99775.91;5172889;27;20052;-51
2022/01/11 03:16:16;;;;;;;12.75;5.35;;;;;;;-2.58;100.00;99791.53;5173199;27;20046;-50
2022/01/11 03:18:43;;;;;;;12.20;5.85;;;;;;;-2.61;100.00;99766.00;5172638;27;20056;-52
2022/01/11 03:21:09;;;;;;;12.65;4.85;;;;;;;-2.54;100.00;99746.97;5172966;27;20398;-50
2022/01/11 03:23:36;;;;;;;12.55;5.68;;;;;;;-2.51;100.00;99722.28;5172006;27;20042;-50
2022/01/11 03:26:03;;;;;;;12.85;4.85;;;;;;;-2.52;100.00;99703.75;5172782;27;20042;-53
2022/01/11 03:28:30;;;;;;;13.88;5.18;;;;;;;-2.72;100.00;99667.75;5172529;27;20042;-51
2022/01/11 03:30:57;;;;;;;16.58;6.45;;;;;;;-2.59;100.00;99695.97;5172570;27;20050;-53
2022/01/11 03:33:23;;;;;;;9.35;3.95;;;;;;;-2.59;100.00;99666.44;5172550;27;20050;-53
2022/01/11 03:35:51;;;;;;;11.07;5.53;;;;;;;-2.64;100.00;99667.22;5172742;27;20132;-54
2022/01/11 03:38:18;;;;;;;16.23;5.72;;;;;;;-2.62;100.00;99648.16;5172389;27;20500;-53
2022/01/11 03:40:45;;;;;;;11.13;5.82;;;;;;;-2.72;100.00;99648.97;5172416;27;20186;-52
2022/01/11 03:43:11;;;;;;;11.60;5.50;;;;;;;-2.81;100.00;99669.31;5172715;27;20053;-51
2022/01/11 03:45:38;;;;;;;19.08;7.03;;;;;;;-2.77;100.00;99691.06;5172274;27;20042;-51
2022/01/11 03:48:06;;;;;;;18.13;6.35;;;;;;;-2.76;100.00;99698.06;5172547;27;20053;-53
2022/01/11 03:50:33;;;;;;;13.13;6.57;;;;;;;-2.79;100.00;99701.28;5172180;27;20493;-50
2022/01/11 03:53:06;;;;;;;14.27;6.40;;;;;;;-2.84;100.00;99688.63;5172585;27;20046;-54
2022/01/11 03:55:45;;;;;;;17.48;6.60;;;;;;;-2.84;100.00;99713.59;5172488;27;20048;-50
2022/01/11 03:58:11;;;;;;;12.85;5.97;;;;;;;-2.80;100.00;99732.66;5172284;27;20063;-50
2022/01/11 04:00:38;;;;;;;11.43;5.53;;;;;;;-2.66;100.00;99760.63;5172136;27;20090;-52
2022/01/11 04:03:06;;;;;;;15.50;5.47;;;;;;;-2.73;100.00;99746.66;5172170;27;20050;-51
2022/01/11 04:05:32;;;;;;;14.95;6.43;;;;;;;-2.72;100.00;99734.84;5172051;27;20046;-51
2022/01/11 04:07:59;;;;;;;13.15;5.60;;;;;;;-2.71;100.00;99723.03;5172141;27;20050;-53
2022/01/11 04:10:25;;;;;;;15.85;6.82;;;;;;;-2.74;100.00;99707.44;5172251;27;20057;-53
2022/01/11 04:12:52;;;;;;;16.08;6.95;;;;;;;-2.77;100.00;99689.19;5171815;27;20143;-52
2022/01/11 04:15:19;;;;;;;12.55;5.63;;;;;;;-2.75;100.00;99684.38;5172442;27;20053;-50
2022/01/11 04:17:45;;;;;;;17.17;6.10;;;;;;;-2.81;100.00;99685.41;5171756;27;20067;-52
2022/01/11 04:20:14;;;;;;;13.77;5.82;;;;;;;-2.76;100.00;99695.38;5171887;27;20050;-54
2022/01/11 04:22:40;;;;;;;12.18;5.70;;;;;;;-2.67;100.00;99699.94;5171346;27;20084;-52
2022/01/11 04:25:07;;;;;;;12.57;5.70;;;;;;;-2.67;100.00;99705.31;5171940;27;20042;-50
2022/01/11 04:27:33;;;;;;;15.65;5.88;;;;;;;-2.72;100.00;99709.88;5171846;27;20053;-53
2022/01/11 04:30:00;;;;;;;17.08;6.85;;;;;;;-2.71;100.00;99706.91;5171577;27;20050;-50
2022/01/11 04:32:27;;;;;;;12.48;6.68;;;;;;;-2.81;100.00;99701.53;5171784;27;20070;-50
2022/01/11 04:34:54;;;;;;;13.05;5.65;;;;;;;-2.81;100.00;99730.25;5173074;27;20053;-52
2022/01/11 04:37:21;;;;;;;11.45;5.07;;;;;;;-2.90;100.00;99737.97;5175259;27;20057;-49
2022/01/11 04:39:47;;;;;;;14.27;6.10;;;;;;;-2.94;100.00;99736.88;5175299;27;20057;-54
2022/01/11 04:42:14;;;;;;;10.30;5.60;;;;;;;-3.02;100.00;99716.75;5175536;27;20053;-51
2022/01/11 04:44:40;;;;;;;12.00;5.35;;;;;;;-2.96;100.00;99699.59;5174905;27;20438;-51
2022/01/11 04:47:07;;;;;;;11.10;5.15;;;;;;;-2.82;100.00;99707.97;5174810;27;20082;-54
2022/01/11 04:49:34;;;;;;;8.70;5.00;;;;;;;-2.44;100.00;99693.28;5174778;27;20042;-59
2022/01/11 04:52:00;;;;;;;11.07;4.60;;;;;;;-2.39;100.00;99652.22;5175189;27;20050;-53
2022/01/11 04:54:27;;;;;;;9.07;4.85;;;;;;;-2.62;100.00;99597.19;5174785;27;20428;-55
2022/01/11 04:56:53;;;;;;;10.50;4.53;;;;;;;-2.60;100.00;99589.66;5174514;27;20108;-61
2022/01/11 04:59:21;;;;;;;10.93;5.00;;;;;;;-2.37;100.00;99594.50;5174756;27;20050;-60
2022/01/11 05:01:48;;;;;;;8.70;4.03;;;;;;;-1.97;100.00;99583.97;5174921;27;20050;-60
2022/01/11 05:04:14;;;;;;;10.90;5.18;;;;;;;-1.81;100.00;99564.03;5174861;27;20050;-58
2022/01/11 05:06:41;;;;;;;8.98;4.70;;;;;;;-1.82;100.00;99550.91;5174673;27;20421;-56
2022/01/11 05:09:07;;;;;;;9.65;5.07;;;;;;;-1.74;100.00;99547.63;5163703;27;20054;-53
2022/01/11 05:11:34;;;;;;;10.07;4.38;;;;;;;-1.78;100.00;99544.69;5153757;27;20141;-51
2022/01/11 05:14:00;;;;;;;9.27;4.72;;;;;;;-1.67;100.00;99543.59;5153867;27;20055;-55
2022/01/11 05:16:26;;;;;;;8.50;4.70;;;;;;;-1.94;100.00;99530.50;5153887;27;20065;-60
2022/01/11 05:18:53;;;;;;;7.78;4.75;;;;;;;-1.93;100.00;99526.75;5153955;27;20081;-56
2022/01/11 05:21:20;;;;;;;7.22;4.13;;;;;;;-2.06;100.00;99532.69;5164930;27;20046;-60
2022/01/11 05:23:46;;;;;;;9.15;4.32;;;;;;;-1.91;100.00;99542.56;5174267;27;20501;-56
2022/01/11 05:26:12;;;;;;;8.43;4.63;;;;;;;-2.07;100.00;99536.44;5174841;27;20046;-54
2022/01/11 05:28:39;;;;;;;6.93;4.32;;;;;;;-2.26;100.00;99541.59;5173853;27;20134;-60
2022/01/11 05:31:06;;;;;;;10.35;4.40;;;;;;;-2.18;100.00;99551.78;5174344;27;20053;-60
2022/01/11 05:33:33;;;;;;;13.13;4.78;;;;;;;-2.27;100.00;99568.69;5164816;27;20043;-60
2022/01/11 05:35:59;;;;;;;8.73;4.68;;;;;;;-2.33;100.00;99569.78;5153343;27;20050;-61
2022/01/11 05:38:25;;;;;;;7.95;4.63;;;;;;;-2.35;100.00;99596.09;5153166;27;20050;-60
2022/01/11 05:40:54;;;;;;;8.85;4.32;;;;;;;-2.52;100.00;99604.44;5158754;27;20137;-61
2022/01/11 05:43:20;;;;;;;9.80;5.05;;;;;;;-2.31;100.00;99634.78;5172971;27;20050;-56
2022/01/11 05:45:48;;;;;;;7.43;4.65;;;;;;;-2.55;100.00;99634.50;5173598;27;20049;-61
2022/01/11 05:48:14;;;;;;;7.57;4.10;;;;;;;-2.70;100.00;99635.25;5174382;27;20453;-63
2022/01/11 05:50:43;;;;;;;9.15;4.53;;;;;;;-2.88;100.00;99620.47;5172976;27;20499;-60
2022/01/11 05:53:09;;;;;;;9.98;4.53;;;;;;;-3.03;100.00;99623.94;5174151;27;20138;-60
2022/01/11 05:55:35;;;;;;;10.55;4.30;;;;;;;-2.96;100.00;99645.16;5173967;27;20095;-58
2022/01/11 05:58:01;;;;;;;6.65;4.00;;;;;;;-3.06;100.00;99627.16;5173693;27;20052;-62
2022/01/11 06:00:28;;;;;;;9.93;4.60;;;;;;;-3.06;100.00;99637.88;5173316;27;20057;-58
2022/01/11 06:02:55;;;;;;;8.05;4.03;;;;;;;-3.05;100.00;99646.72;5172823;27;20054;-52
2022/01/11 06:05:21;;;;;;;6.53;3.75;;;;;;;-3.11;100.00;99643.22;5173969;27;20120;-59
2022/01/11 06:07:48;;;;;;;7.32;4.15;;;;;;;-3.04;100.00;99651.81;5173843;27;20053;-61
2022/01/11 06:10:14;;;;;;;9.52;3.70;;;;;;;-3.20;100.00;99650.13;5173037;27;20061;-59
2022/01/11 06:12:41;;;;;;;12.35;4.60;;;;;;;-3.25;100.00;99648.25;5173618;27;20052;-57
2022/01/11 06:15:07;;;;;;;10.05;3.90;;;;;;;-3.13;100.00;99642.69;5168876;27;20062;-58
2022/01/11 06:17:35;;;;;;;8.25;4.28;;;;;;;-2.87;100.00;99651.59;5152541;27;20053;-59
2022/01/11 06:20:02;;;;;;;8.95;4.90;;;;;;;-3.00;100.00;99642.19;5152642;27;20055;-59
2022/01/11 06:22:28;;;;;;;9.38;4.63;;;;;;;-3.02;100.00;99635.47;5152024;27;20053;-58
2022/01/11 06:24:54;;;;;;;8.63;4.75;;;;;;;-3.03;100.00;99650.75;5152782;27;20061;-57
2022/01/11 06:27:20;;;;;;;5.55;3.10;;;;;;;-3.26;100.00;99638.59;5152628;27;20054;-58
2022/01/11 06:29:47;;;;;;;5.53;3.33;;;;;;;-3.52;100.00;99644.91;5152585;27;20054;-57
2022/01/11 06:32:13;;;;;;;12.25;3.25;;;;;;;-3.57;100.00;99648.34;5162841;27;20401;-58
2022/01/11 06:34:39;;;;;;;8.07;3.60;;;;;;;-3.50;100.00;99654.28;5172933;27;20099;-56
2022/01/11 06:37:06;;;;;;;5.55;2.78;;;;;;;-3.46;100.00;99654.59;5173006;27;20054;-56
2022/01/11 06:39:36;;;;;;;6.85;3.58;;;;;;;-3.26;100.00;99668.09;5161130;27;20402;-53
2022/01/11 06:42:03;;;;;;;8.45;3.63;;;;;;;-3.36;100.00;99662.69;5152208;27;20051;-58
2022/01/11 06:44:29;;;;;;;5.05;3.10;;;;;;;-3.52;100.00;99669.84;5152136;27;20129;-57
2022/01/11 06:46:56;;;;;;;6.43;3.28;;;;;;;-3.37;100.00;99671.78;5152277;27;20133;-55
2022/01/11 06:49:22;;;;;;;8.05;2.95;;;;;;;-3.62;100.00;99673.25;5152009;27;20053;-56
2022/01/11 06:51:48;;;;;;;6.05;2.95;;;;;;;-3.85;100.00;99682.50;5153125;27;20092;-55
2022/01/11 06:54:15;;;;;;;6.40;3.53;;;;;;;-3.81;100.00;99683.59;5152158;27;20050;-57
2022/01/11 06:56:41;;;;;;;5.72;2.67;;;;;;;-3.74;100.00;99675.31;5151614;27;20051;-56
2022/01/11 06:59:07;;;;;;;6.30;2.97;;;;;;;-3.87;100.00;99686.47;5151392;27;20522;-55
2022/01/11 07:01:34;;;;;;;7.10;3.50;;;;;;;-4.03;100.00;99686.38;5152323;27;20071;-55
2022/01/11 07:04:01;;;;;;;6.28;3.50;;;;;;;-4.03;100.00;99685.59;5151823;27;20078;-55
2022/01/11 07:06:27;;;;;;;5.88;3.70;;;;;;;-4.27;100.00;99693.13;5154701;27;20047;-57
2022/01/11 07:08:53;;;;;;;8.98;3.70;;;;;;;-4.29;100.00;99679.19;5151829;27;20046;-56
2022/01/11 07:11:22;;;;;;;6.25;3.60;;;;;;;-4.17;100.00;99687.84;5151828;27;20142;-55
2022/01/11 07:13:48;;;;;;;8.82;3.55;;;;;;;-4.12;100.00;99684.44;5151763;27;20445;-58
2022/01/11 07:16:14;;;;;;;5.85;3.60;;;;;;;-4.01;100.00;99686.13;5151550;27;20057;-54
2022/01/11 07:18:40;;;;;;;6.10;3.22;;;;;;;-3.99;100.00;99691.22;5151483;27;20107;-58
2022/01/11 07:21:06;;;;;;;7.93;3.67;;;;;;;-3.94;100.00;99697.41;5151702;27;20051;-57
2022/01/11 07:23:33;;;;;;;5.03;3.38;;;;;;;-3.88;100.00;99692.91;5151182;27;20069;-58
2022/01/11 07:25:59;;;;;;;6.50;3.05;;;;;;;-3.65;100.00;99694.41;5151299;27;20062;-57
2022/01/11 07:28:26;;;;;;;8.90;3.33;;;;;;;-3.72;100.00;99700.00;5151855;27;20046;-55
2022/01/11 07:30:52;;;;;;;8.10;3.25;;;;;;;-3.81;100.00;99702.34;5151061;27;20086;-55
2022/01/11 07:33:19;;;;;;;8.27;3.17;;;;;;;-3.70;100.00;99705.09;5151785;27;20047;-60
2022/01/11 07:35:45;;;;;;;10.98;4.60;;;;;;;-3.83;100.00;99707.16;5155728;27;20433;-57
2022/01/11 07:38:11;;;;;;;7.53;3.15;;;;;;;-3.97;100.00;99710.50;5158568;27;20486;-56
2022/01/11 07:40:38;;;;;;;9.07;3.95;;;;;;;-4.09;100.00;99706.16;5151510;27;20061;-55
2022/01/11 07:43:04;;;;;;;9.55;4.07;;;;;;;-3.94;100.00;99718.03;5157052;27;20050;-57
2022/01/11 07:45:31;;;;;;;8.00;3.72;;;;;;;-3.96;100.00;99718.31;5158285;27;20057;-58
2022/01/11 07:47:57;;;;;;;11.18;4.40;;;;;;;-4.17;100.00;99711.94;5171965;27;20519;-56
2022/01/11 07:50:23;;;;;;;9.75;4.65;;;;;;;-4.21;100.00;99713.53;5158358;27;20086;-55
2022/01/11 07:52:51;;;;;;;8.07;3.90;;;;;;;-4.32;100.00;99722.53;5162687;27;20438;-55
2022/01/11 07:55:18;;;;;;;9.45;3.70;;;;;;;-4.23;100.00;99722.88;5171857;27;20110;-57
2022/01/11 07:57:44;;;;;;;8.50;4.38;;;;;;;-4.07;100.00;99728.09;5162953;27;20049;-57
2022/01/11 08:00:11;;;;;;;6.25;3.40;;;;;;;-4.10;100.00;99725.13;5151068;27;20054;-56
2022/01/11 08:02:38;;;;;;;5.90;3.88;;;;;;;-4.03;100.00;99731.09;5171389;27;20046;-57
2022/01/11 08:05:06;;;;;;;6.00;3.88;;;;;;;-3.78;100.00;99727.81;5161771;27;20057;-55
2022/01/11 08:07:32;;;;;;;6.20;3.58;;;;;;;-3.59;100.00;99739.75;5157868;27;20042;-56
2022/01/11 08:09:58;;;;;;;6.97;3.53;;;;;;;-3.46;100.00;99745.75;5169556;27;20402;-60
2022/01/11 08:12:25;;;;;;;5.68;3.38;;;;;;;-3.23;100.00;99741.84;5167086;27;20043;-56
2022/01/11 08:14:51;;;;;;;5.95;3.35;;;;;;;-2.87;100.00;99743.63;5154570;27;20046;-58
2022/01/11 08:17:17;;;;;;;8.98;3.50;;;;;;;-2.95;100.00;99754.88;5154301;27;20047;-58
2022/01/11 08:19:46;;;;;;;6.57;3.33;;;;;;;-2.86;100.00;99765.91;5156405;27;20051;-57
2022/01/11 08:22:12;;;;;;;8.98;3.47;;;;;;;-2.87;100.00;99773.13;5174107;27;20155;-58
2022/01/11 08:24:38;;;;;;;6.18;3.20;;;;;;;-3.11;100.00;99774.63;5167264;27;20055;-60
2022/01/11 08:27:05;;;;;;;6.85;3.63;;;;;;;-3.20;100.00;99778.84;5154334;27;20424;-58
2022/01/11 08:29:31;;;;;;;11.10;3.60;;;;;;;-2.93;100.00;99776.88;5166513;27;20461;-59
2022/01/11 08:31:57;;;;;;;8.93;4.38;;;;;;;-2.58;100.00;99778.09;5174267;27;20141;-59
2022/01/11 08:34:23;;;;;;;9.00;3.67;;;;;;;-2.51;100.00;99785.91;5154117;27;20049;-60
2022/01/11 08:36:53;;;;;;;4.95;3.30;;;;;;;-2.15;100.00;99814.47;5154076;27;20046;-61
2022/01/11 08:39:19;;;;;;;3.40;2.40;;;;;;;-2.21;100.00;99830.84;5153684;27;20051;-58
2022/01/11 08:41:47;;;;;;;5.18;2.72;;;;;;;-2.74;100.00;99835.47;5156377;27;20067;-58
2022/01/11 08:44:13;;;;;;;7.10;3.25;;;;;;;-2.72;100.00;99828.78;5165897;27;20397;-57
2022/01/11 08:46:41;;;;;;;6.13;2.92;;;;;;;-2.80;100.00;99812.34;5154260;27;20409;-56
2022/01/11 08:49:09;;;;;;;6.32;3.38;;;;;;;-2.91;100.00;99824.91;5166052;27;20535;-58
2022/01/11 08:51:35;;;;;;;6.10;3.20;;;;;;;-3.40;100.00;99828.63;5175212;27;20046;-57
2022/01/11 08:54:03;;;;;;;6.82;2.83;;;;;;;-3.56;100.00;99806.25;5156226;27;20055;-57
2022/01/11 08:56:30;;;;;;;4.47;2.90;;;;;;;-3.61;100.00;99797.34;5153559;27;20055;-59
2022/01/11 08:58:57;;;;;;;6.28;3.45;;;;;;;-3.56;100.00;99784.81;5158585;27;20047;-59
2022/01/11 09:01:25;;;;;;;7.18;3.00;;;;;;;-3.71;100.00;99790.03;5161073;27;20058;-59
2022/01/11 09:03:52;;;;;;;7.53;2.70;;;;;;;-3.64;100.00;99773.72;5154112;27;20051;-59
2022/01/11 09:06:19;;;;;;;5.78;3.13;;;;;;;-3.33;100.00;99780.94;5158894;27;20137;-58
2022/01/11 09:08:45;;;;;;;6.05;3.05;;;;;;;-3.22;100.00;99791.75;5163913;27;20134;-55
2022/01/11 09:11:12;;;;;;;5.93;3.13;;;;;;;-3.31;100.00;99794.88;5160682;27;20055;-56
2022/01/11 09:13:38;;;;;;;3.72;2.67;;;;;;;-3.16;100.00;99799.56;5162146;27;20429;-60
2022/01/11 09:16:06;;;;;;;8.82;3.80;;;;;;;-3.17;100.00;99805.16;5162903;27;20042;-59
2022/01/11 09:18:32;;;;;;;7.00;2.78;;;;;;;-3.36;100.00;99800.22;5169249;27;20046;-58
2022/01/11 09:21:00;;;;;;;4.53;2.75;;;;;;;-3.18;100.00;99790.94;5173752;27;20141;-59
2022/01/11 09:23:27;;;;;;;5.32;2.72;;;;;;;-3.20;100.00;99792.25;5157737;27;20138;-59
2022/01/11 09:25:53;;;;;;;6.18;3.30;;;;;;;-3.47;100.00;99800.41;5169757;27;20053;-56
2022/01/11 09:28:20;;;;;;;6.43;3.30;;;;;;;-3.82;100.00;99802.53;5158442;27;20055;-58
2022/01/11 09:30:47;;;;;;;5.57;2.97;;;;;;;-3.78;100.00;99794.78;5155600;27;20148;-56
2022/01/11 09:33:14;;;;;;;5.07;2.95;;;;;;;-3.77;100.00;99780.31;5169452;27;20145;-57
2022/01/11 09:35:40;;;;;;;5.50;3.17;;;;;;;-3.57;100.00;99771.63;5163713;27;20130;-56
2022/01/11 09:38:07;;;;;;;5.25;2.90;;;;;;;-3.81;100.00;99795.31;5162270;27;20057;-57
2022/01/11 09:40:34;;;;;;;5.15;3.05;;;;;;;-4.21;100.00;99788.50;5162092;27;20050;-57
2022/01/11 09:43:00;;;;;;;8.18;3.05;;;;;;;-4.41;100.00;99793.63;5161055;27;20062;-56
2022/01/11 09:45:27;;;;;;;7.75;3.30;;;;;;;-4.47;100.00;99781.25;5161025;27;20047;-54
2022/01/11 09:47:53;;;;;;;8.35;4.05;;;;;;;-4.38;100.00;99787.78;5159640;27;20047;-55
2022/01/11 09:50:20;;;;;;;5.70;3.50;;;;;;;-4.43;100.00;99777.84;5164619;27;20055;-56
2022/01/11 09:52:47;;;;;;;6.75;3.33;;;;;;;-4.58;100.00;99791.03;5163881;27;20500;-53
2022/01/11 09:55:14;;;;;;;8.68;3.88;;;;;;;-4.72;100.00;99785.25;5158168;27;20433;-55
2022/01/11 09:57:42;;;;;;;7.13;3.33;;;;;;;-4.49;100.00;99794.91;5156660;27;20052;-56
2022/01/11 10:00:11;;;;;;;4.93;2.40;;;;;;;-4.38;100.00;99799.28;5173699;27;20141;-58
2022/01/11 10:02:38;;;;;;;5.10;2.65;;;;;;;-4.33;100.00;99787.81;5167885;27;20046;-56
2022/01/11 10:05:06;;;;;;;5.35;2.53;;;;;;;-3.94;100.00;99787.69;5152866;27;20047;-58
2022/01/11 10:07:34;;;;;;;5.72;3.13;;;;;;;-3.80;100.00;99779.00;5153111;27;20047;-60
2022/01/11 10:10:01;;;;;;;4.32;2.58;;;;;;;-3.73;100.00;99776.09;5152516;27;20057;-59
2022/01/11 10:12:34;;;;;;;8.27;3.08;;;;;;;-4.01;100.00;99785.22;5152788;27;20046;-57
2022/01/11 10:15:00;;;;;;;2.67;1.88;;;;;;;-4.01;100.00;99787.88;5170340;27;20046;-58
2022/01/11 10:17:28;;;;;;;6.95;3.13;;;;;;;-4.02;100.00;99783.59;5174233;27;20050;-58
2022/01/11 10:20:04;;;;;;;8.52;3.63;;;;;;;-3.94;100.00;99790.34;5173176;27;20057;-57
2022/01/11 10:22:30;;;;;;;5.55;2.65;;;;;;;-4.09;100.00;99799.06;5173265;27;20050;-56
2022/01/11 10:24:58;;;;;;;10.57;2.80;;;;;;;-4.26;100.00;99802.66;5173268;27;20126;-58
2022/01/11 10:27:27;;;;;;;8.13;2.70;;;;;;;-4.21;100.00;99814.47;5169386;27;20050;-57
2022/01/11 10:29:55;;;;;;;4.95;2.75;;;;;;;-4.52;100.00;99816.81;5152628;27;20485;-61
2022/01/11 10:32:24;;;;;;;6.70;3.08;;;;;;;-4.47;100.00;99810.69;5151030;27;20129;-56
2022/01/11 10:34:53;;;;;;;5.90;2.55;;;;;;;-4.65;100.00;99819.84;5152509;27;20042;-57
2022/01/11 10:37:34;;;;;;;8.48;2.85;;;;;;;-4.15;100.00;99808.09;5152157;27;20057;-56
2022/01/11 10:40:03;;;;;;;4.35;2.33;;;;;;;-4.33;100.00;99812.75;5152329;27;20070;-56
2022/01/11 10:42:33;;;;;;;5.00;2.20;;;;;;;-4.18;100.00;99825.47;5152068;27;20043;-55
2022/01/11 10:45:01;;;;;;;4.10;2.03;;;;;;;-4.20;100.00;99842.84;5152459;27;20058;-60
2022/01/11 10:47:29;;;;;;;9.73;2.50;;;;;;;-4.00;100.00;99842.25;5154381;27;20074;-58
2022/01/11 10:50:01;;;;;;;2.38;1.40;;;;;;;-3.96;100.00;99896.97;5172855;27;20087;-58
2022/01/11 10:52:31;;;;;;;2.85;1.73;;;;;;;-4.07;100.00;99928.97;5173281;27;20050;-59
2022/01/11 10:54:59;;;;;;;1.55;1.35;;;;;;;-4.28;100.00;99954.66;5172620;27;20412;-58
2022/01/11 10:57:26;;;;;;;6.03;2.60;;;;;;;-4.05;100.00;99942.13;5173209;27;20054;-58
2022/01/11 11:00:12;;;;;;;3.55;1.75;;;;;;;-4.19;100.00;99981.03;5172743;27;20129;-56
2022/01/11 11:02:40;;;;;;;5.28;1.77;;;;;;;-4.00;100.00;99973.50;5161503;27;20053;-59
2022/01/11 11:05:18;;;;;;;3.33;2.05;;;;;;;-3.69;100.00;99967.44;5151912;27;20050;-60
2022/01/11 11:07:58;;;;;;;5.28;1.80;;;;;;;-3.56;100.00;99991.19;5151572;27;20497;-57
2022/01/11 11:10:44;;;;;;;7.00;2.00;;;;;;;-3.47;100.00;100018.34;5151546;27;20089;-56
2022/01/11 11:13:17;;;;;;;3.90;1.98;;;;;;;-3.58;100.00;100040.72;5154504;27;20066;-55
2022/01/11 11:15:44;;;;;;;2.20;1.75;;;;;;;-3.61;100.00;100046.59;5162001;27;20518;-55
2022/01/11 11:18:33;;;;;;;4.15;1.98;;;;;;;-3.70;100.00;100040.03;5172775;27;20094;-55
2022/01/11 11:21:16;;;;;;;5.15;2.45;;;;;;;-3.64;100.00;100049.75;5172362;27;20530;-57